createdAt,value
2022-07-29T00:00:54.019Z,78.64
2022-07-29T00:01:54.087Z,78.44
2022-07-29T00:02:57.189Z,78.73
2022-07-29T00:03:54.150Z,78.83
2022-07-29T00:04:54.033Z,78.25
2022-07-29T00:05:54.072Z,78.73
2022-07-29T00:06:54.031Z,78.25
2022-07-29T00:07:54.048Z,78.06
2022-07-29T00:08:54.062Z,78.06
2022-07-29T00:09:54.988Z,78.34
2022-07-29T00:10:54.065Z,78.06
2022-07-29T00:11:54.048Z,78.06
2022-07-29T00:12:54.439Z,77.86
2022-07-29T00:13:54.080Z,78.15
2022-07-29T00:14:54.043Z,77.76
2022-07-29T00:15:54.058Z,77.96
2022-07-29T00:16:54.227Z,78.44
2022-07-29T00:17:54.057Z,78.25
2022-07-29T00:18:54.089Z,78.44
2022-07-29T00:19:54.088Z,77.96
2022-07-29T00:20:54.130Z,77.96
2022-07-29T00:21:54.075Z,77.96
2022-07-29T00:22:54.074Z,78.25
2022-07-29T00:23:54.094Z,77.86
2022-07-29T00:24:54.090Z,77.86
2022-07-29T00:25:54.100Z,77.96
2022-07-29T00:26:54.101Z,78.25
2022-07-29T00:27:54.106Z,77.76
2022-07-29T00:29:02.145Z,78.34
2022-07-29T00:29:57.172Z,78.25
2022-07-29T00:30:54.095Z,78.25
2022-07-29T00:31:54.308Z,78.06
2022-07-29T00:32:54.086Z,78.44
2022-07-29T00:33:54.180Z,78.73
2022-07-29T00:34:54.139Z,77.67
2022-07-29T00:35:55.284Z,78.25
2022-07-29T00:36:54.156Z,78.44
2022-07-29T00:37:54.122Z,77.76
2022-07-29T00:38:54.129Z,77.76
2022-07-29T00:39:54.110Z,77.96
2022-07-29T00:40:55.178Z,77.86
2022-07-29T00:41:54.672Z,78.15
2022-07-29T00:42:54.155Z,78.34
2022-07-29T00:43:54.189Z,78.54
2022-07-29T00:44:54.107Z,78.44
2022-07-29T00:45:54.125Z,79.02
2022-07-29T00:46:54.369Z,78.44
2022-07-29T00:47:54.128Z,78.73
2022-07-29T00:48:54.346Z,78.34
2022-07-29T00:49:54.134Z,78.64
2022-07-29T00:50:54.118Z,79.12
2022-07-29T00:51:54.116Z,78.83
2022-07-29T00:52:54.121Z,78.44
2022-07-29T00:53:54.160Z,78.34
2022-07-29T00:54:54.120Z,78.44
2022-07-29T00:55:54.739Z,79.12
2022-07-29T00:56:54.120Z,79.12
2022-07-29T00:57:54.124Z,78.73
2022-07-29T00:58:54.151Z,78.73
2022-07-29T00:59:54.143Z,78.83
2022-07-29T01:00:54.343Z,78.64
2022-07-29T01:01:54.375Z,78.83
2022-07-29T01:02:54.145Z,78.83
2022-07-29T01:03:54.163Z,78.73
2022-07-29T01:04:54.138Z,78.64
2022-07-29T01:05:57.150Z,78.25
2022-07-29T01:06:54.165Z,77.86
2022-07-29T01:07:54.142Z,77.96
2022-07-29T01:08:54.212Z,77.76
2022-07-29T01:09:54.162Z,77.86
2022-07-29T01:10:54.152Z,78.06
2022-07-29T01:11:54.153Z,77.96
2022-07-29T01:12:56.956Z,77.96
2022-07-29T01:13:54.195Z,77.19
2022-07-29T01:14:54.154Z,76.61
2022-07-29T01:15:54.356Z,76.95
2022-07-29T01:16:54.162Z,77.34
2022-07-29T01:17:56.051Z,77.25
2022-07-29T01:18:54.191Z,77.25
2022-07-29T01:19:54.171Z,76.95
2022-07-29T01:20:54.169Z,76.86
2022-07-29T01:21:54.174Z,77.83
2022-07-29T01:22:54.168Z,77.63
2022-07-29T01:23:55.664Z,78.02
2022-07-29T01:24:54.194Z,77.92
2022-07-29T01:25:58.407Z,77.25
2022-07-29T01:26:54.936Z,77.83
2022-07-29T01:27:54.182Z,77.96
2022-07-29T01:28:54.235Z,77.73
2022-07-29T01:29:54.779Z,77.73
2022-07-29T01:30:55.198Z,78.11
2022-07-29T01:32:01.622Z,78.31
2022-07-29T01:32:54.197Z,78.41
2022-07-29T01:33:54.248Z,78.15
2022-07-29T01:34:57.020Z,78.21
2022-07-29T01:35:54.199Z,78.02
2022-07-29T01:36:54.203Z,78.02
2022-07-29T01:37:54.204Z,78.21
2022-07-29T01:38:54.221Z,78.31
2022-07-29T01:39:54.203Z,78.31
2022-07-29T01:40:54.209Z,78.69
2022-07-29T01:41:54.223Z,77.83
2022-07-29T01:42:54.217Z,77.92
2022-07-29T01:43:54.231Z,78.11
2022-07-29T01:44:54.219Z,78.21
2022-07-29T01:45:54.474Z,78.02
2022-07-29T01:46:54.490Z,78.79
2022-07-29T01:47:54.219Z,78.21
2022-07-29T01:48:54.460Z,78.11
2022-07-29T01:49:54.238Z,78.41
2022-07-29T01:50:54.227Z,77.92
2022-07-29T01:51:54.228Z,78.11
2022-07-29T01:52:54.226Z,78.02
2022-07-29T01:53:54.257Z,78.11
2022-07-29T01:54:54.227Z,77.83
2022-07-29T01:55:54.232Z,78.02
2022-07-29T01:56:57.061Z,77.73
2022-07-29T01:57:54.243Z,77.73
2022-07-29T01:58:55.333Z,78.31
2022-07-29T01:59:54.442Z,78.41
2022-07-29T02:00:54.253Z,78.59
2022-07-29T02:01:56.999Z,78.69
2022-07-29T02:02:54.244Z,78.41
2022-07-29T02:03:54.252Z,78.11
2022-07-29T02:04:54.426Z,78.5
2022-07-29T02:05:54.258Z,78.75
2022-07-29T02:06:54.270Z,78.59
2022-07-29T02:07:57.266Z,78.85
2022-07-29T02:08:54.258Z,79.27
2022-07-29T02:09:54.266Z,78.89
2022-07-29T02:10:54.279Z,78.36
2022-07-29T02:11:54.262Z,78.79
2022-07-29T02:12:54.276Z,78.56
2022-07-29T02:13:54.275Z,79.33
2022-07-29T02:14:54.266Z,78.66
2022-07-29T02:15:54.437Z,79.04
2022-07-29T02:16:54.283Z,78.85
2022-07-29T02:17:54.275Z,78.85
2022-07-29T02:18:57.344Z,78.46
2022-07-29T02:19:55.184Z,78.75
2022-07-29T02:20:54.275Z,78.85
2022-07-29T02:21:54.280Z,78.75
2022-07-29T02:22:54.283Z,78.56
2022-07-29T02:23:54.300Z,78.36
2022-07-29T02:24:54.291Z,78.66
2022-07-29T02:25:54.420Z,79.33
2022-07-29T02:26:54.297Z,79.14
2022-07-29T02:27:54.290Z,79.04
2022-07-29T02:28:54.298Z,79.14
2022-07-29T02:29:57.335Z,79.14
2022-07-29T02:30:54.470Z,78.56
2022-07-29T02:31:54.298Z,79.04
2022-07-29T02:32:54.298Z,79.04
2022-07-29T02:33:54.302Z,79.52
2022-07-29T02:34:54.301Z,79.14
2022-07-29T02:35:54.302Z,79.04
2022-07-29T02:36:54.301Z,78.94
2022-07-29T02:37:54.305Z,79.43
2022-07-29T02:38:54.367Z,79.43
2022-07-29T02:39:54.317Z,79.43
2022-07-29T02:40:54.319Z,79.43
2022-07-29T02:41:54.323Z,78.94
2022-07-29T02:42:54.334Z,78.85
2022-07-29T02:43:54.352Z,78.75
2022-07-29T02:44:54.322Z,79.62
2022-07-29T02:45:54.425Z,80.2
2022-07-29T02:46:54.497Z,79.81
2022-07-29T02:47:54.327Z,79.43
2022-07-29T02:48:54.432Z,79.33
2022-07-29T02:49:54.342Z,79.24
2022-07-29T02:50:54.348Z,79.52
2022-07-29T02:51:54.334Z,80.06
2022-07-29T02:52:57.011Z,79.52
2022-07-29T02:53:54.337Z,78.71
2022-07-29T02:54:54.332Z,78.85
2022-07-29T02:55:54.361Z,79.33
2022-07-29T02:56:57.114Z,79.58
2022-07-29T02:57:57.549Z,79.91
2022-07-29T02:58:54.356Z,79.49
2022-07-29T02:59:54.355Z,79.91
2022-07-29T03:00:54.374Z,79.39
2022-07-29T03:01:54.568Z,80
2022-07-29T03:02:54.375Z,79.77
2022-07-29T03:03:54.192Z,79.87
2022-07-29T03:04:54.539Z,79.97
2022-07-29T03:05:54.377Z,79.58
2022-07-29T03:06:54.362Z,79.68
2022-07-29T03:07:55.435Z,79.87
2022-07-29T03:08:54.361Z,79.87
2022-07-29T03:09:54.368Z,79.87
2022-07-29T03:10:54.391Z,79.97
2022-07-29T03:11:54.380Z,80.26
2022-07-29T03:12:54.382Z,80.06
2022-07-29T03:13:54.372Z,80.83
2022-07-29T03:14:54.410Z,80.45
2022-07-29T03:15:54.526Z,79.87
2022-07-29T03:16:54.399Z,79.77
2022-07-29T03:17:54.377Z,79.87
2022-07-29T03:18:54.385Z,79.93
2022-07-29T03:19:54.417Z,80.06
2022-07-29T03:20:54.389Z,79.74
2022-07-29T03:21:54.391Z,79.49
2022-07-29T03:22:54.384Z,79.87
2022-07-29T03:23:54.403Z,80.02
2022-07-29T03:24:54.419Z,80.79
2022-07-29T03:25:54.402Z,80.54
2022-07-29T03:26:54.400Z,80.54
2022-07-29T03:27:54.425Z,80.35
2022-07-29T03:28:54.403Z,80.93
2022-07-29T03:29:55.642Z,81.18
2022-07-29T03:30:54.524Z,81.09
2022-07-29T03:31:54.409Z,80.69
2022-07-29T03:32:54.876Z,81.18
2022-07-29T03:33:54.418Z,81.27
2022-07-29T03:34:54.471Z,81.47
2022-07-29T03:35:54.410Z,81.47
2022-07-29T03:36:54.414Z,81.37
2022-07-29T03:37:54.423Z,81.47
2022-07-29T03:38:54.419Z,81.66
2022-07-29T03:39:55.782Z,81.37
2022-07-29T03:40:54.426Z,81.27
2022-07-29T03:41:54.453Z,81.18
2022-07-29T03:42:54.431Z,80.99
2022-07-29T03:43:54.436Z,80.99
2022-07-29T03:44:54.453Z,80.99
2022-07-29T03:45:54.464Z,80.51
2022-07-29T03:46:54.515Z,81.66
2022-07-29T03:48:00.817Z,81.27
2022-07-29T03:48:54.591Z,81.76
2022-07-29T03:49:54.462Z,82.14
2022-07-29T03:50:55.708Z,82.34
2022-07-29T03:51:54.446Z,82.43
2022-07-29T03:52:54.444Z,83.01
2022-07-29T03:53:54.439Z,83.07
2022-07-29T03:54:54.478Z,82.72
2022-07-29T03:55:54.465Z,83.16
2022-07-29T03:56:54.457Z,82.97
2022-07-29T03:57:54.457Z,83.45
2022-07-29T03:58:54.456Z,83.55
2022-07-29T03:59:54.479Z,83.84
2022-07-29T04:00:54.472Z,83.64
2022-07-29T04:01:57.394Z,83.45
2022-07-29T04:02:54.466Z,83.55
2022-07-29T04:03:57.616Z,83.94
2022-07-29T04:04:54.497Z,83.94
2022-07-29T04:05:54.470Z,84.12
2022-07-29T04:06:57.201Z,84.22
2022-07-29T04:07:54.539Z,84.7
2022-07-29T04:08:54.476Z,85.09
2022-07-29T04:09:54.508Z,84.61
2022-07-29T04:10:54.483Z,84.9
2022-07-29T04:12:05.566Z,84.9
2022-07-29T04:12:57.254Z,84.8
2022-07-29T04:13:54.488Z,85.77
2022-07-29T04:14:54.514Z,85.67
2022-07-29T04:15:54.639Z,85.47
2022-07-29T04:16:54.488Z,86.3
2022-07-29T04:17:54.493Z,85.91
2022-07-29T04:18:54.490Z,85.82
2022-07-29T04:19:54.517Z,86.01
2022-07-29T04:20:54.496Z,86.49
2022-07-29T04:21:54.525Z,87.22
2022-07-29T04:22:54.499Z,87.65
2022-07-29T04:23:57.998Z,87.32
2022-07-29T04:24:54.510Z,86.98
2022-07-29T04:25:54.504Z,86.78
2022-07-29T04:26:54.499Z,86.69
2022-07-29T04:27:54.516Z,86.69
2022-07-29T04:28:54.521Z,86.69
2022-07-29T04:30:01.564Z,86.4
2022-07-29T04:30:54.619Z,86.98
2022-07-29T04:31:54.527Z,87.36
2022-07-29T04:32:54.522Z,87.9
2022-07-29T04:33:54.523Z,89.05
2022-07-29T04:34:57.380Z,90.5
2022-07-29T04:35:55.116Z,90.4
2022-07-29T04:36:54.522Z,90.3
2022-07-29T04:37:54.535Z,90.2
2022-07-29T04:38:54.556Z,90.88
2022-07-29T04:39:54.532Z,91.46
2022-07-29T04:40:54.777Z,91.65
2022-07-29T04:41:57.147Z,91.94
2022-07-29T04:42:56.603Z,91.75
2022-07-29T04:43:54.534Z,92.22
2022-07-29T04:44:54.545Z,92.22
2022-07-29T04:45:57.816Z,92.03
2022-07-29T04:46:54.544Z,92.42
2022-07-29T04:47:54.548Z,91.65
2022-07-29T04:48:54.720Z,91.84
2022-07-29T04:49:54.551Z,92.32
2022-07-29T04:50:54.583Z,92.13
2022-07-29T04:51:54.585Z,91.99
2022-07-29T04:52:54.558Z,92.18
2022-07-29T04:53:54.551Z,91.89
2022-07-29T04:54:54.561Z,91.6
2022-07-29T04:55:54.603Z,91.31
2022-07-29T04:56:57.590Z,91.69
2022-07-29T04:57:54.566Z,91.79
2022-07-29T04:58:54.564Z,91.36
2022-07-29T04:59:54.568Z,91.46
2022-07-29T05:00:54.606Z,91.6
2022-07-29T05:01:54.845Z,91.41
2022-07-29T05:02:56.771Z,91.65
2022-07-29T05:04:00.418Z,92.8
2022-07-29T05:04:54.575Z,92.52
2022-07-29T05:05:54.602Z,92.71
2022-07-29T05:06:54.955Z,93.09
2022-07-29T05:07:57.495Z,92.9
2022-07-29T05:08:54.578Z,92.56
2022-07-29T05:09:54.612Z,92.56
2022-07-29T05:10:54.620Z,93.04
2022-07-29T05:11:54.586Z,93.04
2022-07-29T05:12:54.701Z,93.04
2022-07-29T05:13:54.593Z,93.33
2022-07-29T05:14:54.588Z,93.14
2022-07-29T05:15:54.763Z,92.66
2022-07-29T05:16:54.591Z,92.37
2022-07-29T05:17:54.596Z,93.24
2022-07-29T05:18:54.614Z,93.24
2022-07-29T05:19:54.634Z,93.04
2022-07-29T05:20:54.629Z,92.85
2022-07-29T05:21:54.618Z,92.66
2022-07-29T05:22:54.615Z,92.47
2022-07-29T05:23:57.486Z,92.51
2022-07-29T05:24:54.616Z,92.9
2022-07-29T05:25:54.879Z,93.04
2022-07-29T05:26:55.085Z,92.99
2022-07-29T05:27:54.619Z,93.09
2022-07-29T05:28:54.662Z,92.99
2022-07-29T05:29:54.623Z,93.19
2022-07-29T05:30:54.729Z,93.28
2022-07-29T05:31:54.620Z,93.38
2022-07-29T05:32:54.632Z,93.28
2022-07-29T05:33:54.639Z,93.19
2022-07-29T05:34:57.407Z,93.57
2022-07-29T05:35:58.560Z,93.52
2022-07-29T05:36:54.632Z,94.15
2022-07-29T05:37:54.638Z,94.24
2022-07-29T05:38:54.701Z,93.76
2022-07-29T05:39:59.328Z,93.09
2022-07-29T05:40:54.665Z,92.99
2022-07-29T05:41:54.640Z,90.2
2022-07-29T05:42:54.672Z,89.23
2022-07-29T05:43:54.648Z,89.72
2022-07-29T05:44:54.673Z,89.33
2022-07-29T05:45:54.774Z,89.04
2022-07-29T05:46:54.646Z,89.33
2022-07-29T05:47:54.697Z,89.91
2022-07-29T05:48:54.812Z,89.72
2022-07-29T05:49:54.668Z,89.53
2022-07-29T05:50:54.675Z,89.81
2022-07-29T05:51:54.706Z,90.53
2022-07-29T05:52:54.658Z,90.53
2022-07-29T05:53:54.680Z,91.02
2022-07-29T05:54:54.665Z,90.92
2022-07-29T05:55:54.694Z,90.44
2022-07-29T05:56:54.671Z,89.86
2022-07-29T05:57:54.669Z,89.32
2022-07-29T05:58:54.673Z,89.13
2022-07-29T05:59:54.672Z,88.65
2022-07-29T06:00:54.707Z,88.84
2022-07-29T06:01:54.814Z,87.88
2022-07-29T06:02:54.688Z,87.49
2022-07-29T06:03:54.748Z,86.18
2022-07-29T06:04:54.816Z,86.08
2022-07-29T06:05:54.705Z,85.22
2022-07-29T06:06:57.486Z,84.74
2022-07-29T06:07:54.690Z,84.78
2022-07-29T06:08:54.692Z,84.68
2022-07-29T06:09:54.691Z,84.68
2022-07-29T06:10:54.736Z,84
2022-07-29T06:11:54.694Z,83.52
2022-07-29T06:12:54.699Z,83.18
2022-07-29T06:13:54.748Z,83.37
2022-07-29T06:14:56.644Z,82.98
2022-07-29T06:15:54.912Z,82.15
2022-07-29T06:16:54.852Z,82.73
2022-07-29T06:18:03.051Z,81.19
2022-07-29T06:18:54.710Z,80.12
2022-07-29T06:19:54.714Z,79.6
2022-07-29T06:20:54.748Z,80.12
2022-07-29T06:21:54.717Z,80.12
2022-07-29T06:22:54.731Z,80.03
2022-07-29T06:23:54.722Z,79.83
2022-07-29T06:24:54.747Z,80.16
2022-07-29T06:25:54.738Z,79.97
2022-07-29T06:26:54.720Z,79.72
2022-07-29T06:27:54.722Z,78.94
2022-07-29T06:28:57.794Z,79.62
2022-07-29T06:29:54.733Z,78.79
2022-07-29T06:30:54.918Z,77.82
2022-07-29T06:31:54.725Z,77.09
2022-07-29T06:32:54.743Z,76.51
2022-07-29T06:33:56.975Z,76.02
2022-07-29T06:35:06.988Z,76.06
2022-07-29T06:35:57.539Z,75.42
2022-07-29T06:36:56.483Z,74.93
2022-07-29T06:38:00.269Z,74.29
2022-07-29T06:38:56.027Z,74.52
2022-07-29T06:40:01.843Z,73.94
2022-07-29T06:40:56.023Z,73.55
2022-07-29T06:41:56.031Z,73.16
2022-07-29T06:42:56.030Z,73.55
2022-07-29T06:43:57.489Z,73
2022-07-29T06:44:56.059Z,72.61
2022-07-29T06:45:56.251Z,73
2022-07-29T06:46:56.041Z,72.45
2022-07-29T06:47:56.035Z,71.94
2022-07-29T06:48:56.292Z,72.36
2022-07-29T06:49:56.045Z,72.49
2022-07-29T06:50:58.813Z,72.3
2022-07-29T06:51:56.054Z,72.11
2022-07-29T06:52:56.050Z,71.81
2022-07-29T06:54:04.852Z,71.17
2022-07-29T06:54:56.069Z,70.94
2022-07-29T06:55:56.060Z,71.91
2022-07-29T06:56:56.070Z,71.46
2022-07-29T06:57:56.058Z,71.46
2022-07-29T06:58:56.062Z,71.2
2022-07-29T06:59:56.068Z,71.59
2022-07-29T07:00:56.176Z,71.4
2022-07-29T07:01:59.250Z,71.72
2022-07-29T07:02:56.263Z,71.04
2022-07-29T07:03:56.065Z,70.56
2022-07-29T07:04:56.069Z,70.17
2022-07-29T07:05:56.076Z,70.17
2022-07-29T07:06:56.078Z,70.85
2022-07-29T07:07:56.075Z,70.78
2022-07-29T07:08:56.086Z,70.1
2022-07-29T07:09:56.082Z,70.1
2022-07-29T07:10:56.086Z,70.2
2022-07-29T07:11:56.104Z,69.71
2022-07-29T07:12:58.918Z,70.04
2022-07-29T07:13:59.353Z,70.1
2022-07-29T07:14:56.106Z,70.78
2022-07-29T07:15:56.105Z,70.01
2022-07-29T07:16:57.183Z,70.2
2022-07-29T07:17:56.097Z,70.88
2022-07-29T07:18:56.135Z,69.97
2022-07-29T07:19:56.103Z,70.3
2022-07-29T07:20:56.106Z,70.2
2022-07-29T07:21:57.968Z,70.59
2022-07-29T07:22:56.137Z,70.2
2022-07-29T07:23:59.220Z,70.85
2022-07-29T07:24:56.112Z,70.78
2022-07-29T07:25:56.110Z,70.5
2022-07-29T07:26:56.135Z,70.53
2022-07-29T07:27:56.124Z,70.04
2022-07-29T07:28:56.120Z,70.14
2022-07-29T07:29:56.121Z,71.11
2022-07-29T07:30:56.117Z,70.56
2022-07-29T07:32:01.556Z,70.07
2022-07-29T07:32:56.117Z,70.79
2022-07-29T07:33:56.129Z,69.82
2022-07-29T07:34:59.128Z,69.17
2022-07-29T07:35:56.135Z,69.85
2022-07-29T07:36:56.165Z,69.62
2022-07-29T07:37:56.945Z,70.01
2022-07-29T07:38:56.140Z,69.53
2022-07-29T07:39:56.151Z,69.29
2022-07-29T07:40:56.145Z,69.88
2022-07-29T07:41:56.167Z,70.82
2022-07-29T07:42:56.165Z,69.84
2022-07-29T07:43:56.148Z,70.14
2022-07-29T07:45:16.314Z,71.41
2022-07-29T07:45:59.232Z,72.22
2022-07-29T07:46:56.815Z,71.01
2022-07-29T07:47:56.165Z,71.8
2022-07-29T07:48:56.369Z,71.89
2022-07-29T07:49:56.164Z,70.92
2022-07-29T07:50:57.177Z,71.6
2022-07-29T07:51:56.182Z,71.27
2022-07-29T07:52:56.208Z,72.83
2022-07-29T07:53:56.167Z,72.38
2022-07-29T07:54:56.322Z,71.37
2022-07-29T07:56:12.946Z,71.27
2022-07-29T07:56:56.205Z,71.86
2022-07-29T07:57:56.191Z,71.66
2022-07-29T07:58:56.329Z,71.76
2022-07-29T07:59:56.172Z,71.66
2022-07-29T08:00:56.348Z,72.44
2022-07-29T08:01:58.543Z,72.92
2022-07-29T08:02:56.305Z,73.86
2022-07-29T08:03:56.181Z,73.86
2022-07-29T08:04:56.188Z,72.54
2022-07-29T08:05:56.191Z,72.92
2022-07-29T08:06:56.226Z,72.92
2022-07-29T08:07:56.186Z,72.34
2022-07-29T08:09:13.576Z,72.25
2022-07-29T08:09:56.198Z,72.54
2022-07-29T08:10:56.206Z,72.44
2022-07-29T08:11:56.244Z,72.21
2022-07-29T08:12:56.203Z,72.21
2022-07-29T08:13:56.198Z,73.02
2022-07-29T08:14:56.205Z,72.44
2022-07-29T08:15:56.210Z,72.73
2022-07-29T08:16:56.444Z,71.8
2022-07-29T08:17:56.235Z,72.54
2022-07-29T08:18:56.449Z,72.73
2022-07-29T08:19:56.235Z,71.8
2022-07-29T08:20:56.218Z,72.57
2022-07-29T08:21:56.700Z,72.28
2022-07-29T08:22:56.286Z,72.19
2022-07-29T08:24:06.899Z,71.7
2022-07-29T08:24:57.902Z,72.47
2022-07-29T08:25:57.155Z,71.92
2022-07-29T08:26:56.276Z,71.92
2022-07-29T08:27:56.246Z,72.19
2022-07-29T08:28:59.073Z,72.9
2022-07-29T08:29:56.232Z,71.25
2022-07-29T08:30:56.234Z,71.34
2022-07-29T08:31:57.059Z,71.37
2022-07-29T08:32:57.790Z,70.98
2022-07-29T08:33:56.257Z,72.49
2022-07-29T08:34:56.243Z,71.41
2022-07-29T08:35:56.248Z,71.25
2022-07-29T08:36:56.279Z,71.12
2022-07-29T08:37:56.262Z,69.4
2022-07-29T08:38:56.255Z,69.4
2022-07-29T08:39:56.259Z,69.4
2022-07-29T08:40:56.262Z,69.26
2022-07-29T08:42:00.047Z,69.2
2022-07-29T08:42:56.263Z,69.73
2022-07-29T08:43:56.270Z,69.43
2022-07-29T08:44:56.264Z,68.68
2022-07-29T08:45:56.339Z,69.24
2022-07-29T08:46:56.294Z,68.65
2022-07-29T08:47:56.270Z,67.9
2022-07-29T08:48:56.461Z,67.32
2022-07-29T08:49:56.276Z,67.61
2022-07-29T08:50:56.279Z,67.64
2022-07-29T08:51:56.931Z,67.61
2022-07-29T08:53:01.891Z,67.41
2022-07-29T08:53:56.281Z,68.39
2022-07-29T08:54:56.280Z,67.8
2022-07-29T08:55:59.326Z,67.12
2022-07-29T08:56:57.702Z,67.71
2022-07-29T08:57:59.603Z,67.74
2022-07-29T08:58:56.519Z,68.91
2022-07-29T08:59:56.136Z,67.74
2022-07-29T09:00:57.902Z,67.38
2022-07-29T09:01:57.115Z,65.78
2022-07-29T09:02:56.297Z,66.2
2022-07-29T09:03:56.451Z,65.91
2022-07-29T09:04:56.301Z,66.3
2022-07-29T09:05:56.302Z,66.4
2022-07-29T09:06:58.124Z,66.8
2022-07-29T09:07:56.307Z,66.8
2022-07-29T09:08:56.320Z,66.3
2022-07-29T09:09:58.178Z,66.3
2022-07-29T09:10:56.311Z,66.93
2022-07-29T09:11:57.127Z,67.74
2022-07-29T09:12:56.322Z,67.74
2022-07-29T09:13:56.329Z,67.83
2022-07-29T09:14:56.377Z,67.35
2022-07-29T09:15:56.389Z,67.44
2022-07-29T09:16:56.958Z,66.89
2022-07-29T09:17:59.207Z,66.8
2022-07-29T09:18:56.324Z,67.54
2022-07-29T09:19:56.332Z,67.83
2022-07-29T09:20:56.331Z,67.74
2022-07-29T09:21:56.358Z,68.71
2022-07-29T09:22:56.346Z,68.71
2022-07-29T09:23:56.338Z,68.52
2022-07-29T09:24:56.353Z,67.8
2022-07-29T09:25:56.341Z,68
2022-07-29T09:26:57.014Z,67.51
2022-07-29T09:27:56.351Z,68.16
2022-07-29T09:28:59.529Z,67.8
2022-07-29T09:29:56.837Z,68
2022-07-29T09:30:56.360Z,66.63
2022-07-29T09:31:56.585Z,66.96
2022-07-29T09:32:56.383Z,66.96
2022-07-29T09:33:56.360Z,66.17
2022-07-29T09:35:03.507Z,66.17
2022-07-29T09:35:59.350Z,66.27
2022-07-29T09:36:57.122Z,66.11
2022-07-29T09:37:56.372Z,66.86
2022-07-29T09:38:56.371Z,67.64
2022-07-29T09:39:59.391Z,66.76
2022-07-29T09:40:56.212Z,66.66
2022-07-29T09:41:56.380Z,66.47
2022-07-29T09:42:56.388Z,65.88
2022-07-29T09:43:56.395Z,65.46
2022-07-29T09:44:56.220Z,65.53
2022-07-29T09:45:56.389Z,66.53
2022-07-29T09:46:57.205Z,66.44
2022-07-29T09:47:56.391Z,67.38
2022-07-29T09:48:56.523Z,66.7
2022-07-29T09:49:56.395Z,66.6
2022-07-29T09:50:59.237Z,66.99
2022-07-29T09:51:56.392Z,66.89
2022-07-29T09:52:56.439Z,66.6
2022-07-29T09:53:56.401Z,65.07
2022-07-29T09:54:56.399Z,64.55
2022-07-29T09:55:56.402Z,64.78
2022-07-29T09:56:57.253Z,64.29
2022-07-29T09:57:56.405Z,65.36
2022-07-29T09:58:56.449Z,66.05
2022-07-29T09:59:56.416Z,64.75
2022-07-29T10:00:56.615Z,64.84
2022-07-29T10:02:00.003Z,65.72
2022-07-29T10:02:56.598Z,65.82
2022-07-29T10:03:56.429Z,65.72
2022-07-29T10:04:56.420Z,65.82
2022-07-29T10:05:56.420Z,66.08
2022-07-29T10:07:03.515Z,66.56
2022-07-29T10:07:59.822Z,66.86
2022-07-29T10:08:56.426Z,66.56
2022-07-29T10:09:56.458Z,66.86
2022-07-29T10:10:56.471Z,66.86
2022-07-29T10:11:56.471Z,67.44
2022-07-29T10:13:01.965Z,67.44
2022-07-29T10:13:56.433Z,67.74
2022-07-29T10:14:56.437Z,66.47
2022-07-29T10:15:56.517Z,66.93
2022-07-29T10:16:56.461Z,66.56
2022-07-29T10:17:56.490Z,66.08
2022-07-29T10:18:56.298Z,66.11
2022-07-29T10:19:56.452Z,66.7
2022-07-29T10:20:56.453Z,66.31
2022-07-29T10:22:00.731Z,65.92
2022-07-29T10:22:56.890Z,66.31
2022-07-29T10:24:01.812Z,66.5
2022-07-29T10:24:56.462Z,66.89
2022-07-29T10:25:56.463Z,66.7
2022-07-29T10:26:56.464Z,66.02
2022-07-29T10:27:56.508Z,66.73
2022-07-29T10:28:56.480Z,67.51
2022-07-29T10:29:56.517Z,66.73
2022-07-29T10:30:56.508Z,67.41
2022-07-29T10:31:57.009Z,66.73
2022-07-29T10:32:56.802Z,67.32
2022-07-29T10:33:56.495Z,66.44
2022-07-29T10:34:56.483Z,65.56
2022-07-29T10:35:56.486Z,65.95
2022-07-29T10:36:56.532Z,67.05
2022-07-29T10:37:57.324Z,65.78
2022-07-29T10:38:57.068Z,65.49
2022-07-29T10:39:56.489Z,65.39
2022-07-29T10:40:59.629Z,65.59
2022-07-29T10:41:58.139Z,65.78
2022-07-29T10:42:57.554Z,65.69
2022-07-29T10:43:56.757Z,65.59
2022-07-29T10:44:56.497Z,66.08
2022-07-29T10:45:56.494Z,65.72
2022-07-29T10:46:56.704Z,65.81
2022-07-29T10:47:56.533Z,66.37
2022-07-29T10:48:56.649Z,66.3
2022-07-29T10:49:58.769Z,64.97
2022-07-29T10:50:57.551Z,65.26
2022-07-29T10:51:57.369Z,65
2022-07-29T10:52:56.551Z,64.15
2022-07-29T10:53:56.531Z,64.31
2022-07-29T10:54:56.690Z,64.84
2022-07-29T10:55:59.278Z,66.14
2022-07-29T10:56:56.525Z,64.8
2022-07-29T10:57:57.176Z,63.85
2022-07-29T10:58:56.631Z,64.01
2022-07-29T10:59:56.530Z,64.58
2022-07-29T11:00:57.621Z,64.67
2022-07-29T11:02:28.132Z,63.43
2022-07-29T11:02:57.146Z,63.98
2022-07-29T11:08:06.456Z,64.21
2022-07-29T11:09:11.496Z,63.72
2022-07-29T11:10:05.343Z,63.92
2022-07-29T11:11:06.553Z,63.56
2022-07-29T11:12:05.445Z,63.53
2022-07-29T11:13:09.177Z,63.46
2022-07-29T11:14:06.097Z,64.54
2022-07-29T11:15:05.360Z,64.04
2022-07-29T11:16:05.367Z,63.53
2022-07-29T11:17:08.363Z,64.01
2022-07-29T11:18:06.269Z,64.47
2022-07-29T11:19:05.366Z,63.98
2022-07-29T11:20:05.362Z,64.18
2022-07-29T11:21:05.467Z,64.54
2022-07-29T11:22:05.701Z,65.62
2022-07-29T11:23:05.368Z,65.03
2022-07-29T11:24:08.492Z,64.54
2022-07-29T11:25:09.827Z,64.84
2022-07-29T11:26:05.904Z,65.33
2022-07-29T11:27:05.946Z,65.03
2022-07-29T11:28:06.080Z,65.23
2022-07-29T11:29:05.406Z,64.37
2022-07-29T11:30:05.717Z,63.17
2022-07-29T11:31:05.382Z,62.98
2022-07-29T11:32:05.460Z,63.01
2022-07-29T11:33:05.419Z,63.49
2022-07-29T11:34:08.000Z,63.89
2022-07-29T11:35:22.354Z,63.89
2022-07-29T11:36:08.287Z,63.92
2022-07-29T11:37:06.535Z,63.13
2022-07-29T11:38:06.070Z,62.94
2022-07-29T11:39:06.225Z,64.25
2022-07-29T11:40:07.489Z,63.17
2022-07-29T11:41:06.821Z,62.41
2022-07-29T11:42:15.932Z,62.41
2022-07-29T12:07:22.504Z,59.69
2022-07-29T12:08:20.836Z,59.39
2022-07-29T12:09:22.913Z,59.5
2022-07-29T12:10:29.729Z,59.82
2022-07-29T12:11:23.599Z,59.1
2022-07-29T12:12:20.820Z,59
2022-07-29T12:13:20.803Z,58.61
2022-07-29T12:14:25.325Z,58.39
2022-07-29T12:15:22.615Z,60.45
2022-07-29T12:16:30.226Z,59.42
2022-07-29T12:17:21.952Z,60.41
2022-07-29T12:18:23.786Z,60.02
2022-07-29T12:19:20.819Z,60.24
2022-07-29T12:20:22.641Z,60.24
2022-07-29T12:21:20.820Z,59.48
2022-07-29T12:22:20.842Z,59.09
2022-07-29T12:23:21.299Z,59.45
2022-07-29T12:24:26.625Z,58.5
2022-07-29T12:25:35.567Z,58.6
2022-07-29T12:26:27.924Z,57.91
2022-07-29T12:27:28.531Z,58.01
2022-07-29T12:28:29.313Z,58.89
2022-07-29T12:29:33.610Z,58.99
2022-07-29T12:30:21.007Z,59.09
2022-07-29T12:31:45.797Z,58.83
2022-07-29T12:32:22.171Z,58.3
2022-07-29T12:33:20.849Z,57.81
2022-07-29T12:34:20.840Z,57.98
2022-07-29T12:35:20.856Z,57.81
2022-07-29T12:36:20.856Z,58.5
2022-07-29T12:37:20.877Z,57.91
2022-07-29T12:38:20.849Z,58.3
2022-07-29T12:39:20.845Z,57.71
2022-07-29T12:40:20.854Z,57.29
2022-07-29T12:41:23.988Z,57.66
2022-07-29T12:42:21.279Z,58.54
2022-07-29T12:43:20.859Z,58.15
2022-07-29T12:44:20.859Z,58.05
2022-07-29T12:45:20.869Z,58.34
2022-07-29T12:46:20.990Z,59.13
2022-07-29T12:47:20.899Z,59.82
2022-07-29T12:48:20.872Z,58.67
2022-07-29T12:49:20.851Z,58.25
2022-07-29T12:50:26.372Z,58.34
2022-07-29T12:51:20.880Z,58.25
2022-07-29T12:52:22.512Z,59.03
2022-07-29T12:53:20.880Z,58.57
2022-07-29T12:54:20.882Z,57.68
2022-07-29T12:55:20.883Z,57.91
2022-07-29T12:56:45.247Z,57.51
2022-07-29T12:57:22.695Z,57.71
2022-07-29T12:58:20.897Z,57.39
2022-07-29T12:59:20.943Z,58.28
2022-07-29T13:00:20.894Z,58.2
2022-07-29T13:01:21.214Z,58.11
2022-07-29T13:02:20.955Z,57.81
2022-07-29T13:03:24.524Z,57.12
2022-07-29T13:04:20.896Z,57.2
2022-07-29T13:05:20.905Z,57.12
2022-07-29T13:06:20.908Z,57.71
2022-07-29T13:07:20.915Z,58.11
2022-07-29T13:08:24.377Z,57.32
2022-07-29T13:09:20.945Z,57.51
2022-07-29T13:10:26.526Z,57.32
2022-07-29T13:11:20.913Z,57.71
2022-07-29T13:12:20.920Z,57.22
2022-07-29T13:13:20.967Z,56.85
2022-07-29T13:14:24.026Z,56.34
2022-07-29T13:15:20.959Z,55.87
2022-07-29T13:16:21.064Z,56.66
2022-07-29T13:17:20.958Z,56.27
2022-07-29T13:18:21.797Z,57.45
2022-07-29T13:19:20.933Z,57.35
2022-07-29T13:20:20.968Z,57.22
2022-07-29T13:21:21.326Z,56.93
2022-07-29T13:22:20.950Z,57.54
2022-07-29T13:23:20.986Z,57.84
2022-07-29T13:24:22.305Z,58.2